sensor_id;sensor_type;location;lat;lon;timestamp;temperature;humidity
6738;DHT22;3406;49.902;8.596;2023-04-25T00:01:32;9.40;96.60
6738;DHT22;3406;49.902;8.596;2023-04-25T00:04:01;9.40;96.70
6738;DHT22;3406;49.902;8.596;2023-04-25T00:06:29;9.40;96.70
6738;DHT22;3406;49.902;8.596;2023-04-25T00:08:57;9.50;96.70
6738;DHT22;3406;49.902;8.596;2023-04-25T00:11:24;9.50;96.70
6738;DHT22;3406;49.902;8.596;2023-04-25T00:13:50;9.50;96.80
6738;DHT22;3406;49.902;8.596;2023-04-25T00:16:17;9.50;96.80
6738;DHT22;3406;49.902;8.596;2023-04-25T00:18:44;9.50;96.70
6738;DHT22;3406;49.902;8.596;2023-04-25T00:21:11;9.50;96.80
6738;DHT22;3406;49.902;8.596;2023-04-25T00:23:39;9.50;96.90
6738;DHT22;3406;49.902;8.596;2023-04-25T00:26:06;9.50;96.90
6738;DHT22;3406;49.902;8.596;2023-04-25T00:28:33;9.50;97.00
6738;DHT22;3406;49.902;8.596;2023-04-25T00:31:00;9.50;97.00
6738;DHT22;3406;49.902;8.596;2023-04-25T00:33:27;9.40;96.90
6738;DHT22;3406;49.902;8.596;2023-04-25T00:35:54;9.40;97.00
6738;DHT22;3406;49.902;8.596;2023-04-25T00:38:20;9.40;97.20
6738;DHT22;3406;49.902;8.596;2023-04-25T00:40:48;9.40;97.20
6738;DHT22;3406;49.902;8.596;2023-04-25T00:43:15;9.40;97.30
6738;DHT22;3406;49.902;8.596;2023-04-25T00:45:43;9.50;97.30
6738;DHT22;3406;49.902;8.596;2023-04-25T00:48:10;9.40;97.30
6738;DHT22;3406;49.902;8.596;2023-04-25T00:50:37;9.40;97.30
6738;DHT22;3406;49.902;8.596;2023-04-25T00:53:04;9.40;97.30
6738;DHT22;3406;49.902;8.596;2023-04-25T00:55:30;9.40;97.40
6738;DHT22;3406;49.902;8.596;2023-04-25T00:57:59;9.40;97.50
6738;DHT22;3406;49.902;8.596;2023-04-25T01:00:25;9.40;97.50
6738;DHT22;3406;49.902;8.596;2023-04-25T01:02:52;9.40;97.50
6738;DHT22;3406;49.902;8.596;2023-04-25T01:05:19;9.40;97.60
6738;DHT22;3406;49.902;8.596;2023-04-25T01:07:46;9.40;97.70
6738;DHT22;3406;49.902;8.596;2023-04-25T01:10:13;9.40;97.70
6738;DHT22;3406;49.902;8.596;2023-04-25T01:12:40;9.40;97.70
6738;DHT22;3406;49.902;8.596;2023-04-25T01:15:09;9.40;97.70
6738;DHT22;3406;49.902;8.596;2023-04-25T01:17:36;9.40;97.80
6738;DHT22;3406;49.902;8.596;2023-04-25T01:20:03;9.50;97.80
6738;DHT22;3406;49.902;8.596;2023-04-25T01:22:32;9.50;97.80
6738;DHT22;3406;49.902;8.596;2023-04-25T01:24:59;9.50;97.80
6738;DHT22;3406;49.902;8.596;2023-04-25T01:27:26;9.40;97.80
6738;DHT22;3406;49.902;8.596;2023-04-25T01:29:54;9.40;97.80
6738;DHT22;3406;49.902;8.596;2023-04-25T01:32:21;9.40;97.80
6738;DHT22;3406;49.902;8.596;2023-04-25T01:34:48;9.40;97.90
6738;DHT22;3406;49.902;8.596;2023-04-25T01:37:16;9.40;98.00
6738;DHT22;3406;49.902;8.596;2023-04-25T01:39:44;9.40;98.00
6738;DHT22;3406;49.902;8.596;2023-04-25T01:42:12;9.40;98.00
6738;DHT22;3406;49.902;8.596;2023-04-25T01:44:39;9.40;98.00
6738;DHT22;3406;49.902;8.596;2023-04-25T01:47:06;9.40;98.10
6738;DHT22;3406;49.902;8.596;2023-04-25T01:49:32;9.40;98.00
6738;DHT22;3406;49.902;8.596;2023-04-25T01:51:59;9.40;98.10
6738;DHT22;3406;49.902;8.596;2023-04-25T01:54:26;9.30;98.20
6738;DHT22;3406;49.902;8.596;2023-04-25T01:56:57;9.30;98.20
6738;DHT22;3406;49.902;8.596;2023-04-25T01:59:23;9.30;98.30
6738;DHT22;3406;49.902;8.596;2023-04-25T02:01:50;9.30;98.40
6738;DHT22;3406;49.902;8.596;2023-04-25T02:04:17;9.40;98.50
6738;DHT22;3406;49.902;8.596;2023-04-25T02:06:44;9.40;98.40
6738;DHT22;3406;49.902;8.596;2023-04-25T02:09:10;9.40;98.50
6738;DHT22;3406;49.902;8.596;2023-04-25T02:11:37;9.40;98.60
6738;DHT22;3406;49.902;8.596;2023-04-25T02:14:05;9.50;98.60
6738;DHT22;3406;49.902;8.596;2023-04-25T02:16:31;9.40;98.40
6738;DHT22;3406;49.902;8.596;2023-04-25T02:18:58;9.40;98.40
6738;DHT22;3406;49.902;8.596;2023-04-25T02:21:25;9.40;98.60
6738;DHT22;3406;49.902;8.596;2023-04-25T02:23:52;9.40;98.60
6738;DHT22;3406;49.902;8.596;2023-04-25T02:26:19;9.40;98.60
6738;DHT22;3406;49.902;8.596;2023-04-25T02:28:46;9.40;98.70
6738;DHT22;3406;49.902;8.596;2023-04-25T02:31:14;9.40;98.70
6738;DHT22;3406;49.902;8.596;2023-04-25T02:33:40;9.40;98.80
6738;DHT22;3406;49.902;8.596;2023-04-25T02:36:07;9.30;98.70
6738;DHT22;3406;49.902;8.596;2023-04-25T02:38:34;9.30;98.90
6738;DHT22;3406;49.902;8.596;2023-04-25T02:41:00;9.40;99.00
6738;DHT22;3406;49.902;8.596;2023-04-25T02:43:27;9.40;98.90
6738;DHT22;3406;49.902;8.596;2023-04-25T02:45:54;9.40;98.90
6738;DHT22;3406;49.902;8.596;2023-04-25T02:48:22;9.40;98.80
6738;DHT22;3406;49.902;8.596;2023-04-25T02:50:48;9.40;98.80
6738;DHT22;3406;49.902;8.596;2023-04-25T02:53:15;9.30;98.90
6738;DHT22;3406;49.902;8.596;2023-04-25T02:55:42;9.30;99.00
6738;DHT22;3406;49.902;8.596;2023-04-25T02:58:08;9.40;99.10
6738;DHT22;3406;49.902;8.596;2023-04-25T03:00:35;9.40;99.40
6738;DHT22;3406;49.902;8.596;2023-04-25T03:03:02;9.40;98.90
6738;DHT22;3406;49.902;8.596;2023-04-25T03:05:30;9.40;99.10
6738;DHT22;3406;49.902;8.596;2023-04-25T03:07:57;9.40;99.10
6738;DHT22;3406;49.902;8.596;2023-04-25T03:10:25;9.40;99.10
6738;DHT22;3406;49.902;8.596;2023-04-25T03:12:52;9.40;99.10
6738;DHT22;3406;49.902;8.596;2023-04-25T03:15:19;9.40;99.10
6738;DHT22;3406;49.902;8.596;2023-04-25T03:17:45;9.30;99.20
6738;DHT22;3406;49.902;8.596;2023-04-25T03:20:12;9.30;99.20
6738;DHT22;3406;49.902;8.596;2023-04-25T03:22:40;9.30;99.30
6738;DHT22;3406;49.902;8.596;2023-04-25T03:25:07;9.20;99.30
6738;DHT22;3406;49.902;8.596;2023-04-25T03:27:34;9.20;99.70
6738;DHT22;3406;49.902;8.596;2023-04-25T03:30:00;9.10;99.50
6738;DHT22;3406;49.902;8.596;2023-04-25T03:32:27;9.20;99.70
6738;DHT22;3406;49.902;8.596;2023-04-25T03:34:54;9.10;99.60
6738;DHT22;3406;49.902;8.596;2023-04-25T03:37:21;9.10;99.60
6738;DHT22;3406;49.902;8.596;2023-04-25T03:39:49;9.20;99.70
6738;DHT22;3406;49.902;8.596;2023-04-25T03:42:15;9.20;99.70
6738;DHT22;3406;49.902;8.596;2023-04-25T03:44:43;9.20;99.50
6738;DHT22;3406;49.902;8.596;2023-04-25T03:47:09;9.20;99.70
6738;DHT22;3406;49.902;8.596;2023-04-25T03:49:36;9.20;99.70
6738;DHT22;3406;49.902;8.596;2023-04-25T03:52:04;9.20;99.70
6738;DHT22;3406;49.902;8.596;2023-04-25T03:54:30;9.30;99.70
6738;DHT22;3406;49.902;8.596;2023-04-25T03:56:58;9.30;99.60
6738;DHT22;3406;49.902;8.596;2023-04-25T03:59:25;9.30;99.60
6738;DHT22;3406;49.902;8.596;2023-04-25T04:01:52;9.30;99.60
6738;DHT22;3406;49.902;8.596;2023-04-25T04:04:19;9.30;99.60
6738;DHT22;3406;49.902;8.596;2023-04-25T04:06:45;9.30;99.50
6738;DHT22;3406;49.902;8.596;2023-04-25T04:09:12;9.30;99.50
6738;DHT22;3406;49.902;8.596;2023-04-25T04:11:39;9.30;99.40
6738;DHT22;3406;49.902;8.596;2023-04-25T04:14:07;9.30;99.50
6738;DHT22;3406;49.902;8.596;2023-04-25T04:16:35;9.30;99.50
6738;DHT22;3406;49.902;8.596;2023-04-25T04:19:02;9.30;99.50
6738;DHT22;3406;49.902;8.596;2023-04-25T04:21:29;9.30;99.60
6738;DHT22;3406;49.902;8.596;2023-04-25T04:23:57;9.30;99.70
6738;DHT22;3406;49.902;8.596;2023-04-25T04:26:25;9.30;99.70
6738;DHT22;3406;49.902;8.596;2023-04-25T04:28:52;9.30;99.80
6738;DHT22;3406;49.902;8.596;2023-04-25T04:31:21;9.30;99.80
6738;DHT22;3406;49.902;8.596;2023-04-25T04:33:47;9.30;99.70
6738;DHT22;3406;49.902;8.596;2023-04-25T04:36:14;9.40;99.70
6738;DHT22;3406;49.902;8.596;2023-04-25T04:38:41;9.40;99.70
6738;DHT22;3406;49.902;8.596;2023-04-25T04:41:08;9.30;99.60
6738;DHT22;3406;49.902;8.596;2023-04-25T04:43:35;9.30;99.50
6738;DHT22;3406;49.902;8.596;2023-04-25T04:46:02;9.30;99.40
6738;DHT22;3406;49.902;8.596;2023-04-25T04:48:31;9.30;99.30
6738;DHT22;3406;49.902;8.596;2023-04-25T04:50:59;9.30;99.30
6738;DHT22;3406;49.902;8.596;2023-04-25T04:53:26;9.20;99.20
6738;DHT22;3406;49.902;8.596;2023-04-25T04:55:52;9.20;99.20
6738;DHT22;3406;49.902;8.596;2023-04-25T04:58:19;9.20;99.10
6738;DHT22;3406;49.902;8.596;2023-04-25T05:00:46;9.10;98.90
6738;DHT22;3406;49.902;8.596;2023-04-25T05:03:12;9.00;98.50
6738;DHT22;3406;49.902;8.596;2023-04-25T05:05:41;9.00;98.50
6738;DHT22;3406;49.902;8.596;2023-04-25T05:08:07;8.90;98.40
6738;DHT22;3406;49.902;8.596;2023-04-25T05:10:34;8.90;98.30
6738;DHT22;3406;49.902;8.596;2023-04-25T05:13:01;8.80;98.10
6738;DHT22;3406;49.902;8.596;2023-04-25T05:15:28;8.80;98.00
6738;DHT22;3406;49.902;8.596;2023-04-25T05:17:55;8.80;97.60
6738;DHT22;3406;49.902;8.596;2023-04-25T05:20:21;8.70;97.30
6738;DHT22;3406;49.902;8.596;2023-04-25T05:22:49;8.60;96.80
6738;DHT22;3406;49.902;8.596;2023-04-25T05:25:16;8.50;96.50
6738;DHT22;3406;49.902;8.596;2023-04-25T05:27:43;8.40;96.30
6738;DHT22;3406;49.902;8.596;2023-04-25T05:30:10;8.40;96.20
6738;DHT22;3406;49.902;8.596;2023-04-25T05:32:37;8.40;96.20
6738;DHT22;3406;49.902;8.596;2023-04-25T05:35:04;8.40;96.20
6738;DHT22;3406;49.902;8.596;2023-04-25T05:37:32;8.50;96.10
6738;DHT22;3406;49.902;8.596;2023-04-25T05:40:00;8.50;96.10
6738;DHT22;3406;49.902;8.596;2023-04-25T05:42:26;8.50;95.70
6738;DHT22;3406;49.902;8.596;2023-04-25T05:44:53;8.50;95.70
6738;DHT22;3406;49.902;8.596;2023-04-25T05:47:20;8.60;95.80
6738;DHT22;3406;49.902;8.596;2023-04-25T05:49:47;8.60;95.80
6738;DHT22;3406;49.902;8.596;2023-04-25T05:52:13;8.60;95.50
6738;DHT22;3406;49.902;8.596;2023-04-25T05:54:40;8.60;95.50
6738;DHT22;3406;49.902;8.596;2023-04-25T05:57:08;8.60;95.30
6738;DHT22;3406;49.902;8.596;2023-04-25T05:59:37;8.60;95.20
6738;DHT22;3406;49.902;8.596;2023-04-25T06:02:04;8.60;95.20
6738;DHT22;3406;49.902;8.596;2023-04-25T06:04:31;8.70;95.20
6738;DHT22;3406;49.902;8.596;2023-04-25T06:06:58;8.70;95.10
6738;DHT22;3406;49.902;8.596;2023-04-25T06:09:25;8.80;95.00
6738;DHT22;3406;49.902;8.596;2023-04-25T06:11:51;8.80;94.70
6738;DHT22;3406;49.902;8.596;2023-04-25T06:14:19;8.70;94.50
6738;DHT22;3406;49.902;8.596;2023-04-25T06:16:46;8.80;94.50
6738;DHT22;3406;49.902;8.596;2023-04-25T06:19:13;8.80;94.50
6738;DHT22;3406;49.902;8.596;2023-04-25T06:21:39;8.90;94.50
6738;DHT22;3406;49.902;8.596;2023-04-25T06:24:06;9.00;94.50
6738;DHT22;3406;49.902;8.596;2023-04-25T06:26:33;9.10;94.50
6738;DHT22;3406;49.902;8.596;2023-04-25T06:28:59;9.20;94.40
6738;DHT22;3406;49.902;8.596;2023-04-25T06:31:27;9.30;94.20
6738;DHT22;3406;49.902;8.596;2023-04-25T06:33:57;9.30;94.10
6738;DHT22;3406;49.902;8.596;2023-04-25T06:36:24;9.40;93.90
6738;DHT22;3406;49.902;8.596;2023-04-25T06:38:53;9.40;93.70
6738;DHT22;3406;49.902;8.596;2023-04-25T06:41:20;9.40;92.80
6738;DHT22;3406;49.902;8.596;2023-04-25T06:43:47;9.30;92.20
6738;DHT22;3406;49.902;8.596;2023-04-25T06:46:13;9.40;92.20
6738;DHT22;3406;49.902;8.596;2023-04-25T06:48:41;9.50;92.10
6738;DHT22;3406;49.902;8.596;2023-04-25T06:51:08;9.50;91.70
6738;DHT22;3406;49.902;8.596;2023-04-25T06:53:35;9.60;91.50
6738;DHT22;3406;49.902;8.596;2023-04-25T06:56:02;9.70;91.30
6738;DHT22;3406;49.902;8.596;2023-04-25T06:58:29;9.70;90.80
6738;DHT22;3406;49.902;8.596;2023-04-25T07:00:56;9.60;90.30
6738;DHT22;3406;49.902;8.596;2023-04-25T07:03:22;9.60;90.20
6738;DHT22;3406;49.902;8.596;2023-04-25T07:05:50;9.60;90.00
6738;DHT22;3406;49.902;8.596;2023-04-25T07:08:17;9.60;89.20
6738;DHT22;3406;49.902;8.596;2023-04-25T07:10:44;9.60;88.80
6738;DHT22;3406;49.902;8.596;2023-04-25T07:13:11;9.60;89.00
6738;DHT22;3406;49.902;8.596;2023-04-25T07:15:38;9.70;88.50
6738;DHT22;3406;49.902;8.596;2023-04-25T07:18:05;9.70;88.10
6738;DHT22;3406;49.902;8.596;2023-04-25T07:20:31;9.70;87.80
6738;DHT22;3406;49.902;8.596;2023-04-25T07:22:59;9.70;87.30
6738;DHT22;3406;49.902;8.596;2023-04-25T07:25:28;9.60;87.40
6738;DHT22;3406;49.902;8.596;2023-04-25T07:27:56;9.60;87.80
6738;DHT22;3406;49.902;8.596;2023-04-25T07:30:22;9.70;87.80
6738;DHT22;3406;49.902;8.596;2023-04-25T07:32:49;9.80;87.60
6738;DHT22;3406;49.902;8.596;2023-04-25T07:35:17;9.80;87.00
6738;DHT22;3406;49.902;8.596;2023-04-25T07:37:43;9.80;86.80
6738;DHT22;3406;49.902;8.596;2023-04-25T07:40:12;9.80;86.60
6738;DHT22;3406;49.902;8.596;2023-04-25T07:42:41;9.80;86.40
6738;DHT22;3406;49.902;8.596;2023-04-25T07:45:08;9.80;85.80
6738;DHT22;3406;49.902;8.596;2023-04-25T07:47:35;9.80;84.90
6738;DHT22;3406;49.902;8.596;2023-04-25T07:50:01;9.70;83.80
6738;DHT22;3406;49.902;8.596;2023-04-25T07:52:28;9.70;83.10
6738;DHT22;3406;49.902;8.596;2023-04-25T07:54:55;9.80;82.40
6738;DHT22;3406;49.902;8.596;2023-04-25T07:57:24;9.90;82.30
6738;DHT22;3406;49.902;8.596;2023-04-25T07:59:51;10.10;80.40
6738;DHT22;3406;49.902;8.596;2023-04-25T08:02:17;10.10;78.50
6738;DHT22;3406;49.902;8.596;2023-04-25T08:04:44;10.20;78.30
6738;DHT22;3406;49.902;8.596;2023-04-25T08:07:11;10.20;77.30
6738;DHT22;3406;49.902;8.596;2023-04-25T08:09:38;10.20;76.80
6738;DHT22;3406;49.902;8.596;2023-04-25T08:12:05;10.30;75.90
6738;DHT22;3406;49.902;8.596;2023-04-25T08:14:33;10.30;75.70
6738;DHT22;3406;49.902;8.596;2023-04-25T08:17:02;10.50;75.40
6738;DHT22;3406;49.902;8.596;2023-04-25T08:19:29;10.60;75.00
6738;DHT22;3406;49.902;8.596;2023-04-25T08:21:56;10.60;73.80
6738;DHT22;3406;49.902;8.596;2023-04-25T08:24:23;10.70;74.00
6738;DHT22;3406;49.902;8.596;2023-04-25T08:26:50;10.80;73.30
6738;DHT22;3406;49.902;8.596;2023-04-25T08:29:17;10.90;73.60
6738;DHT22;3406;49.902;8.596;2023-04-25T08:31:45;11.10;72.90
6738;DHT22;3406;49.902;8.596;2023-04-25T08:34:12;11.20;71.90
6738;DHT22;3406;49.902;8.596;2023-04-25T08:36:38;11.30;71.70
6738;DHT22;3406;49.902;8.596;2023-04-25T08:39:05;11.50;71.70
6738;DHT22;3406;49.902;8.596;2023-04-25T08:41:33;11.80;71.80
6738;DHT22;3406;49.902;8.596;2023-04-25T08:44:01;11.90;70.30
6738;DHT22;3406;49.902;8.596;2023-04-25T08:46:30;11.70;68.30
6738;DHT22;3406;49.902;8.596;2023-04-25T08:49:01;11.50;68.00
6738;DHT22;3406;49.902;8.596;2023-04-25T08:51:31;11.50;68.40
6738;DHT22;3406;49.902;8.596;2023-04-25T08:54:07;11.50;68.00
6738;DHT22;3406;49.902;8.596;2023-04-25T08:56:34;11.50;67.90
6738;DHT22;3406;49.902;8.596;2023-04-25T08:59:01;11.60;67.50
6738;DHT22;3406;49.902;8.596;2023-04-25T09:01:28;11.60;67.60
6738;DHT22;3406;49.902;8.596;2023-04-25T09:03:55;11.60;67.00
6738;DHT22;3406;49.902;8.596;2023-04-25T09:06:24;11.60;66.00
6738;DHT22;3406;49.902;8.596;2023-04-25T09:08:51;11.70;66.30
6738;DHT22;3406;49.902;8.596;2023-04-25T09:11:18;11.90;66.10
6738;DHT22;3406;49.902;8.596;2023-04-25T09:13:45;12.00;65.00
6738;DHT22;3406;49.902;8.596;2023-04-25T09:16:12;12.10;65.30
6738;DHT22;3406;49.902;8.596;2023-04-25T09:18:42;12.20;64.30
6738;DHT22;3406;49.902;8.596;2023-04-25T09:21:10;12.40;63.90
6738;DHT22;3406;49.902;8.596;2023-04-25T09:23:45;12.70;63.70
6738;DHT22;3406;49.902;8.596;2023-04-25T09:26:14;12.80;63.50
6738;DHT22;3406;49.902;8.596;2023-04-25T09:28:42;12.70;62.40
6738;DHT22;3406;49.902;8.596;2023-04-25T09:31:10;12.70;62.60
6738;DHT22;3406;49.902;8.596;2023-04-25T09:33:37;12.60;62.50
6738;DHT22;3406;49.902;8.596;2023-04-25T09:36:05;12.50;61.70
6738;DHT22;3406;49.902;8.596;2023-04-25T09:38:39;12.50;61.90
6738;DHT22;3406;49.902;8.596;2023-04-25T09:41:08;12.40;61.90
6738;DHT22;3406;49.902;8.596;2023-04-25T09:43:35;12.40;62.70
6738;DHT22;3406;49.902;8.596;2023-04-25T09:46:02;12.40;62.20
6738;DHT22;3406;49.902;8.596;2023-04-25T09:48:33;12.40;62.10
6738;DHT22;3406;49.902;8.596;2023-04-25T09:51:07;12.40;61.40
6738;DHT22;3406;49.902;8.596;2023-04-25T09:53:35;12.30;60.10
6738;DHT22;3406;49.902;8.596;2023-04-25T09:56:04;12.20;59.90
6738;DHT22;3406;49.902;8.596;2023-04-25T09:58:33;12.20;59.70
6738;DHT22;3406;49.902;8.596;2023-04-25T10:01:01;12.10;59.70
6738;DHT22;3406;49.902;8.596;2023-04-25T10:03:30;12.10;59.90
6738;DHT22;3406;49.902;8.596;2023-04-25T10:05:59;12.00;59.90
6738;DHT22;3406;49.902;8.596;2023-04-25T10:08:31;12.10;60.00
6738;DHT22;3406;49.902;8.596;2023-04-25T10:11:00;12.10;59.40
6738;DHT22;3406;49.902;8.596;2023-04-25T10:13:29;12.10;59.40
6738;DHT22;3406;49.902;8.596;2023-04-25T10:15:58;12.10;59.30
6738;DHT22;3406;49.902;8.596;2023-04-25T10:18:25;12.00;59.00
6738;DHT22;3406;49.902;8.596;2023-04-25T10:20:54;11.90;58.60
6738;DHT22;3406;49.902;8.596;2023-04-25T10:23:20;11.90;58.80
6738;DHT22;3406;49.902;8.596;2023-04-25T10:25:47;11.90;58.80
6738;DHT22;3406;49.902;8.596;2023-04-25T10:28:15;12.00;58.80
6738;DHT22;3406;49.902;8.596;2023-04-25T10:33:39;12.00;58.70
6738;DHT22;3406;49.902;8.596;2023-04-25T10:36:12;12.10;58.50
6738;DHT22;3406;49.902;8.596;2023-04-25T10:38:39;12.10;58.30
6738;DHT22;3406;49.902;8.596;2023-04-25T10:41:07;12.20;58.40
6738;DHT22;3406;49.902;8.596;2023-04-25T10:43:36;12.40;58.30
6738;DHT22;3406;49.902;8.596;2023-04-25T10:46:13;12.50;57.70
6738;DHT22;3406;49.902;8.596;2023-04-25T10:48:45;12.40;57.70
6738;DHT22;3406;49.902;8.596;2023-04-25T10:51:17;12.30;57.60
6738;DHT22;3406;49.902;8.596;2023-04-25T10:53:44;12.10;57.40
6738;DHT22;3406;49.902;8.596;2023-04-25T10:56:11;12.10;57.80
6738;DHT22;3406;49.902;8.596;2023-04-25T10:58:42;12.00;57.90
6738;DHT22;3406;49.902;8.596;2023-04-25T11:01:09;12.00;58.20
6738;DHT22;3406;49.902;8.596;2023-04-25T11:03:40;12.10;58.50
6738;DHT22;3406;49.902;8.596;2023-04-25T11:06:19;12.10;58.40
6738;DHT22;3406;49.902;8.596;2023-04-25T11:08:48;12.10;58.40
6738;DHT22;3406;49.902;8.596;2023-04-25T11:11:16;12.20;58.10
6738;DHT22;3406;49.902;8.596;2023-04-25T11:13:43;12.40;58.00
6738;DHT22;3406;49.902;8.596;2023-04-25T11:16:10;12.40;57.70
6738;DHT22;3406;49.902;8.596;2023-04-25T11:18:37;12.40;57.40
6738;DHT22;3406;49.902;8.596;2023-04-25T11:21:04;12.40;57.30
6738;DHT22;3406;49.902;8.596;2023-04-25T11:23:33;12.50;57.40
6738;DHT22;3406;49.902;8.596;2023-04-25T11:26:02;12.70;57.30
6738;DHT22;3406;49.902;8.596;2023-04-25T11:28:29;12.90;57.10
6738;DHT22;3406;49.902;8.596;2023-04-25T11:30:56;12.70;56.20
6738;DHT22;3406;49.902;8.596;2023-04-25T11:33:23;12.40;56.10
6738;DHT22;3406;49.902;8.596;2023-04-25T11:35:53;12.30;56.80
6738;DHT22;3406;49.902;8.596;2023-04-25T11:38:20;12.30;56.90
6738;DHT22;3406;49.902;8.596;2023-04-25T11:40:51;12.30;56.70
6738;DHT22;3406;49.902;8.596;2023-04-25T11:43:19;12.30;56.90
6738;DHT22;3406;49.902;8.596;2023-04-25T11:45:47;12.30;57.00
6738;DHT22;3406;49.902;8.596;2023-04-25T11:48:14;12.40;56.90
6738;DHT22;3406;49.902;8.596;2023-04-25T11:50:41;12.50;56.60
6738;DHT22;3406;49.902;8.596;2023-04-25T11:53:08;12.50;56.10
6738;DHT22;3406;49.902;8.596;2023-04-25T11:55:36;12.50;56.00
6738;DHT22;3406;49.902;8.596;2023-04-25T11:58:05;12.60;56.30
6738;DHT22;3406;49.902;8.596;2023-04-25T12:00:32;12.70;56.30
6738;DHT22;3406;49.902;8.596;2023-04-25T12:02:59;12.80;56.00
6738;DHT22;3406;49.902;8.596;2023-04-25T12:05:29;12.80;55.50
6738;DHT22;3406;49.902;8.596;2023-04-25T12:07:56;12.70;55.00
6738;DHT22;3406;49.902;8.596;2023-04-25T12:10:24;12.60;54.90
6738;DHT22;3406;49.902;8.596;2023-04-25T12:12:51;12.50;54.50
6738;DHT22;3406;49.902;8.596;2023-04-25T12:15:24;12.40;54.80
6738;DHT22;3406;49.902;8.596;2023-04-25T12:17:52;12.30;54.80
6738;DHT22;3406;49.902;8.596;2023-04-25T12:20:21;12.30;55.00
6738;DHT22;3406;49.902;8.596;2023-04-25T12:22:49;12.40;55.30
6738;DHT22;3406;49.902;8.596;2023-04-25T12:25:34;12.50;55.10
6738;DHT22;3406;49.902;8.596;2023-04-25T12:28:10;12.40;55.30
6738;DHT22;3406;49.902;8.596;2023-04-25T12:33:32;12.50;55.40
6738;DHT22;3406;49.902;8.596;2023-04-25T12:36:00;12.50;54.80
6738;DHT22;3406;49.902;8.596;2023-04-25T12:38:30;12.40;54.40
6738;DHT22;3406;49.902;8.596;2023-04-25T12:40:57;12.40;54.30
6738;DHT22;3406;49.902;8.596;2023-04-25T12:43:24;12.30;53.80
6738;DHT22;3406;49.902;8.596;2023-04-25T12:45:52;12.40;53.90
6738;DHT22;3406;49.902;8.596;2023-04-25T12:48:19;12.60;53.60
6738;DHT22;3406;49.902;8.596;2023-04-25T12:50:48;12.80;53.40
6738;DHT22;3406;49.902;8.596;2023-04-25T12:53:15;13.00;53.30
6738;DHT22;3406;49.902;8.596;2023-04-25T12:55:42;13.10;53.00
6738;DHT22;3406;49.902;8.596;2023-04-25T12:58:11;13.20;52.50
6738;DHT22;3406;49.902;8.596;2023-04-25T13:00:38;13.20;51.90
6738;DHT22;3406;49.902;8.596;2023-04-25T13:03:05;13.40;52.10
6738;DHT22;3406;49.902;8.596;2023-04-25T13:05:31;13.40;51.20
6738;DHT22;3406;49.902;8.596;2023-04-25T13:07:59;13.40;51.10
6738;DHT22;3406;49.902;8.596;2023-04-25T13:10:26;13.50;51.00
6738;DHT22;3406;49.902;8.596;2023-04-25T13:12:53;13.60;51.00
6738;DHT22;3406;49.902;8.596;2023-04-25T13:15:20;13.70;51.00
6738;DHT22;3406;49.902;8.596;2023-04-25T13:17:47;13.70;50.90
6738;DHT22;3406;49.902;8.596;2023-04-25T13:20:13;13.80;50.90
6738;DHT22;3406;49.902;8.596;2023-04-25T13:22:41;13.80;50.20
6738;DHT22;3406;49.902;8.596;2023-04-25T13:25:09;13.70;49.60
6738;DHT22;3406;49.902;8.596;2023-04-25T13:27:38;13.50;49.70
6738;DHT22;3406;49.902;8.596;2023-04-25T13:30:06;13.30;49.90
6738;DHT22;3406;49.902;8.596;2023-04-25T13:32:34;13.20;50.30
6738;DHT22;3406;49.902;8.596;2023-04-25T13:35:02;13.10;50.60
6738;DHT22;3406;49.902;8.596;2023-04-25T13:37:28;13.00;50.60
6738;DHT22;3406;49.902;8.596;2023-04-25T13:39:56;13.00;50.60
6738;DHT22;3406;49.902;8.596;2023-04-25T13:42:24;13.10;50.80
6738;DHT22;3406;49.902;8.596;2023-04-25T13:44:51;13.10;50.40
6738;DHT22;3406;49.902;8.596;2023-04-25T13:47:17;13.10;50.30
6738;DHT22;3406;49.902;8.596;2023-04-25T13:49:44;13.00;50.00
6738;DHT22;3406;49.902;8.596;2023-04-25T13:52:10;12.90;49.60
6738;DHT22;3406;49.902;8.596;2023-04-25T13:54:37;12.80;49.50
6738;DHT22;3406;49.902;8.596;2023-04-25T13:57:04;12.70;49.30
6738;DHT22;3406;49.902;8.596;2023-04-25T13:59:32;12.60;49.40
6738;DHT22;3406;49.902;8.596;2023-04-25T14:01:59;12.60;49.70
6738;DHT22;3406;49.902;8.596;2023-04-25T14:04:26;12.70;49.90
6738;DHT22;3406;49.902;8.596;2023-04-25T14:06:53;12.90;49.70
6738;DHT22;3406;49.902;8.596;2023-04-25T14:09:20;12.90;49.30
6738;DHT22;3406;49.902;8.596;2023-04-25T14:11:50;13.00;49.10
6738;DHT22;3406;49.902;8.596;2023-04-25T14:14:17;13.00;49.00
6738;DHT22;3406;49.902;8.596;2023-04-25T14:16:45;13.00;48.80
6738;DHT22;3406;49.902;8.596;2023-04-25T14:19:13;12.90;48.70
6738;DHT22;3406;49.902;8.596;2023-04-25T14:21:40;12.90;48.60
6738;DHT22;3406;49.902;8.596;2023-04-25T14:24:07;12.80;48.60
6738;DHT22;3406;49.902;8.596;2023-04-25T14:26:34;12.80;48.80
6738;DHT22;3406;49.902;8.596;2023-04-25T14:29:02;12.80;48.90
6738;DHT22;3406;49.902;8.596;2023-04-25T14:31:28;12.80;48.80
6738;DHT22;3406;49.902;8.596;2023-04-25T14:33:56;12.70;48.60
6738;DHT22;3406;49.902;8.596;2023-04-25T14:36:23;12.70;48.50
6738;DHT22;3406;49.902;8.596;2023-04-25T14:38:51;12.70;48.70
6738;DHT22;3406;49.902;8.596;2023-04-25T14:41:18;12.70;48.80
6738;DHT22;3406;49.902;8.596;2023-04-25T14:43:45;12.60;48.90
6738;DHT22;3406;49.902;8.596;2023-04-25T14:46:11;12.70;49.10
6738;DHT22;3406;49.902;8.596;2023-04-25T14:48:38;12.80;49.30
6738;DHT22;3406;49.902;8.596;2023-04-25T14:51:06;12.80;49.20
6738;DHT22;3406;49.902;8.596;2023-04-25T14:53:33;12.90;49.40
6738;DHT22;3406;49.902;8.596;2023-04-25T14:55:59;12.90;48.70
6738;DHT22;3406;49.902;8.596;2023-04-25T14:58:26;12.90;49.00
6738;DHT22;3406;49.902;8.596;2023-04-25T15:00:53;12.90;48.70
6738;DHT22;3406;49.902;8.596;2023-04-25T15:03:19;12.80;48.10
6738;DHT22;3406;49.902;8.596;2023-04-25T15:05:46;12.80;48.00
6738;DHT22;3406;49.902;8.596;2023-04-25T15:08:14;12.70;47.30
6738;DHT22;3406;49.902;8.596;2023-04-25T15:10:41;12.70;47.20
6738;DHT22;3406;49.902;8.596;2023-04-25T15:13:07;12.60;47.20
6738;DHT22;3406;49.902;8.596;2023-04-25T15:15:35;12.80;48.00
6738;DHT22;3406;49.902;8.596;2023-04-25T15:18:02;13.10;47.30
6738;DHT22;3406;49.902;8.596;2023-04-25T15:20:29;13.20;47.00
6738;DHT22;3406;49.902;8.596;2023-04-25T15:22:57;13.20;47.10
6738;DHT22;3406;49.902;8.596;2023-04-25T15:25:25;13.20;47.10
6738;DHT22;3406;49.902;8.596;2023-04-25T15:27:53;13.00;46.20
6738;DHT22;3406;49.902;8.596;2023-04-25T15:30:20;12.90;46.20
6738;DHT22;3406;49.902;8.596;2023-04-25T15:32:48;12.70;46.00
6738;DHT22;3406;49.902;8.596;2023-04-25T15:35:15;12.60;46.30
6738;DHT22;3406;49.902;8.596;2023-04-25T15:37:42;12.50;46.50
6738;DHT22;3406;49.902;8.596;2023-04-25T15:40:11;12.40;46.60
6738;DHT22;3406;49.902;8.596;2023-04-25T15:42:41;12.40;46.90
6738;DHT22;3406;49.902;8.596;2023-04-25T15:45:10;12.40;47.00
6738;DHT22;3406;49.902;8.596;2023-04-25T15:47:38;12.40;47.10
6738;DHT22;3406;49.902;8.596;2023-04-25T15:50:06;12.40;47.30
6738;DHT22;3406;49.902;8.596;2023-04-25T15:52:34;12.40;47.50
6738;DHT22;3406;49.902;8.596;2023-04-25T15:55:01;12.50;47.60
6738;DHT22;3406;49.902;8.596;2023-04-25T15:57:29;12.50;47.60
6738;DHT22;3406;49.902;8.596;2023-04-25T15:59:56;12.50;47.90
6738;DHT22;3406;49.902;8.596;2023-04-25T16:02:23;12.50;48.10
6738;DHT22;3406;49.902;8.596;2023-04-25T16:04:50;12.50;48.30
6738;DHT22;3406;49.902;8.596;2023-04-25T16:07:16;12.60;48.90
6738;DHT22;3406;49.902;8.596;2023-04-25T16:09:43;12.60;48.50
6738;DHT22;3406;49.902;8.596;2023-04-25T16:12:12;12.60;48.50
6738;DHT22;3406;49.902;8.596;2023-04-25T16:14:39;12.70;48.30
6738;DHT22;3406;49.902;8.596;2023-04-25T16:17:07;12.70;48.00